createdAt,value
2019-02-05T00:00:04.508Z,96.70
2019-02-05T00:00:36.029Z,96.50
2019-02-05T00:01:03.169Z,96.40
2019-02-05T00:01:27.568Z,96.60
2019-02-05T00:01:50.468Z,96.50
2019-02-05T00:02:13.329Z,96.50
2019-02-05T00:02:36.243Z,96.60
2019-02-05T00:02:59.069Z,96.70
2019-02-05T00:03:22.849Z,96.90
2019-02-05T00:03:45.790Z,96.50
2019-02-05T00:04:08.650Z,96.50
2019-02-05T00:04:31.569Z,96.50
2019-02-05T00:04:54.529Z,96.50
2019-02-05T00:05:18.829Z,96.90
2019-02-05T00:05:41.708Z,96.60
2019-02-05T00:06:04.809Z,96.80
2019-02-05T00:06:27.729Z,96.70
2019-02-05T00:06:50.648Z,96.80
2019-02-05T00:07:13.509Z,96.90
2019-02-05T00:07:36.788Z,97.00
2019-02-05T00:07:59.731Z,97.10
2019-02-05T00:08:22.649Z,97.10
2019-02-05T00:08:45.630Z,97.10
2019-02-05T00:09:08.529Z,97.10
2019-02-05T00:09:31.431Z,97.00
2019-02-05T00:09:54.568Z,97.20
2019-02-05T00:10:17.588Z,97.40
2019-02-05T00:10:40.489Z,97.10
2019-02-05T00:11:03.348Z,96.90
2019-02-05T00:11:26.689Z,97.00
2019-02-05T00:11:51.629Z,96.60
2019-02-05T00:12:15.229Z,96.60
2019-02-05T00:12:38.148Z,96.50
2019-02-05T00:13:00.948Z,96.60
2019-02-05T00:13:24.991Z,96.70
2019-02-05T00:13:47.848Z,96.80
2019-02-05T00:14:11.287Z,96.80
2019-02-05T00:14:35.088Z,96.80
2019-02-05T00:14:58.009Z,96.80
2019-02-05T00:15:20.929Z,96.80
2019-02-05T00:15:44.291Z,97.20
2019-02-05T00:16:07.252Z,96.90
2019-02-05T00:16:30.169Z,96.60
2019-02-05T00:16:53.828Z,96.40
2019-02-05T00:17:16.868Z,96.40
2019-02-05T00:17:39.769Z,96.30
2019-02-05T00:18:03.169Z,96.30
2019-02-05T00:18:26.108Z,96.40
2019-02-05T00:18:51.544Z,96.40
2019-02-05T00:19:13.789Z,96.40
2019-02-05T00:19:36.646Z,96.40
2019-02-05T00:19:59.492Z,96.50
2019-02-05T00:20:22.545Z,96.60
2019-02-05T00:20:45.428Z,96.60
2019-02-05T00:21:08.609Z,96.50
2019-02-05T00:21:31.549Z,96.60
2019-02-05T00:21:54.548Z,96.80
2019-02-05T00:22:17.412Z,96.70
2019-02-05T00:22:41.130Z,96.90
2019-02-05T00:23:04.008Z,96.90
2019-02-05T00:23:26.949Z,97.00
2019-02-05T00:23:49.809Z,96.80
2019-02-05T00:24:12.789Z,97.00
2019-02-05T00:24:36.468Z,96.70
2019-02-05T00:24:59.528Z,96.90
2019-02-05T00:25:22.649Z,96.70
2019-02-05T00:25:45.489Z,96.90
2019-02-05T00:26:08.369Z,96.70
2019-02-05T00:26:31.309Z,96.80
2019-02-05T00:26:54.269Z,96.90
2019-02-05T00:27:17.228Z,97.00
2019-02-05T00:27:40.150Z,97.10
2019-02-05T00:28:02.989Z,97.20
2019-02-05T00:28:26.051Z,97.00
2019-02-05T00:28:48.829Z,96.90
2019-02-05T00:29:11.730Z,96.80
2019-02-05T00:29:34.781Z,96.90
2019-02-05T00:29:57.849Z,96.90
2019-02-05T00:30:20.829Z,96.70
2019-02-05T00:30:43.688Z,96.70
2019-02-05T00:31:06.630Z,96.60
2019-02-05T00:31:29.728Z,96.30
2019-02-05T00:31:52.588Z,96.30
2019-02-05T00:32:15.427Z,96.40
2019-02-05T00:32:38.211Z,96.30
2019-02-05T00:33:01.128Z,96.50
2019-02-05T00:33:24.009Z,96.60
2019-02-05T00:33:46.928Z,96.60
2019-02-05T00:34:09.728Z,96.50
2019-02-05T00:34:32.669Z,96.60
2019-02-05T00:34:56.089Z,96.50
2019-02-05T00:35:18.891Z,96.60
2019-02-05T00:35:42.109Z,96.70
2019-02-05T00:36:04.889Z,96.40
2019-02-05T00:36:27.869Z,96.60
2019-02-05T00:36:50.750Z,96.60
2019-02-05T00:37:13.531Z,96.70
2019-02-05T00:37:37.009Z,96.50
2019-02-05T00:37:59.849Z,96.50
2019-02-05T00:38:22.809Z,96.50
2019-02-05T00:38:45.769Z,96.70
2019-02-05T00:39:09.829Z,96.60
2019-02-05T00:39:32.811Z,96.60
2019-02-05T00:39:55.676Z,96.50
2019-02-05T00:40:18.449Z,96.60
2019-02-05T00:40:43.689Z,96.80
2019-02-05T00:41:06.529Z,96.90
2019-02-05T00:41:29.349Z,97.00
2019-02-05T00:41:52.169Z,96.90
2019-02-05T00:42:16.768Z,96.70
2019-02-05T00:42:40.129Z,96.70
2019-02-05T00:43:02.813Z,96.60
2019-02-05T00:43:25.629Z,96.50
2019-02-05T00:43:48.549Z,96.60
2019-02-05T00:44:11.429Z,96.60
2019-02-05T00:44:34.308Z,96.40
2019-02-05T00:44:57.271Z,96.60
2019-02-05T00:45:20.288Z,96.80
2019-02-05T00:45:43.248Z,96.80
2019-02-05T00:46:06.690Z,96.70
2019-02-05T00:46:29.610Z,96.60
2019-02-05T00:46:52.569Z,96.60
2019-02-05T00:47:15.589Z,96.50
2019-02-05T00:47:38.449Z,96.50
2019-02-05T00:48:01.249Z,96.70
2019-02-05T00:48:24.768Z,96.90
2019-02-05T00:48:47.809Z,96.90
2019-02-05T00:49:11.089Z,96.80
2019-02-05T00:49:33.889Z,96.60
2019-02-05T00:49:56.769Z,96.60
2019-02-05T00:50:19.648Z,96.60
2019-02-05T00:50:42.651Z,96.70
2019-02-05T00:51:05.449Z,96.70
2019-02-05T00:51:28.309Z,96.80
2019-02-05T00:51:51.249Z,96.80
2019-02-05T00:52:14.148Z,96.70
2019-02-05T00:52:37.249Z,96.70
2019-02-05T00:53:00.088Z,96.90
2019-02-05T00:53:22.968Z,97.00
2019-02-05T00:53:45.790Z,96.60
2019-02-05T00:54:08.649Z,96.40
2019-02-05T00:54:31.528Z,96.30
2019-02-05T00:54:54.489Z,96.40
2019-02-05T00:55:17.369Z,96.50
2019-02-05T00:55:41.089Z,96.50
2019-02-05T00:56:03.928Z,96.50
2019-02-05T00:56:26.929Z,96.60
2019-02-05T00:56:49.889Z,96.70
2019-02-05T00:57:12.768Z,96.70
2019-02-05T00:57:35.689Z,96.80
2019-02-05T00:57:58.508Z,96.80
2019-02-05T00:58:21.309Z,96.90
2019-02-05T00:58:44.290Z,96.90
2019-02-05T00:59:07.648Z,97.20
2019-02-05T00:59:30.732Z,97.20
2019-02-05T00:59:53.729Z,97.10
2019-02-05T01:00:16.729Z,97.00
2019-02-05T01:00:39.568Z,97.20
2019-02-05T01:01:02.371Z,97.20
2019-02-05T01:01:25.349Z,96.90
2019-02-05T01:01:48.249Z,96.80
2019-02-05T01:02:11.311Z,96.70
2019-02-05T01:02:34.230Z,96.60
2019-02-05T01:02:57.129Z,96.70
2019-02-05T01:03:20.011Z,96.60
2019-02-05T01:03:42.828Z,96.70
2019-02-05T01:04:06.230Z,96.50
2019-02-05T01:04:29.729Z,96.50
2019-02-05T01:04:52.627Z,96.40
2019-02-05T01:05:15.388Z,96.30
2019-02-05T01:05:38.549Z,96.10
2019-02-05T01:06:01.449Z,96.20
2019-02-05T01:06:24.349Z,96.20
2019-02-05T01:06:48.004Z,95.80
2019-02-05T01:07:10.909Z,96.10
2019-02-05T01:07:34.049Z,96.10
2019-02-05T01:07:57.010Z,96.10
2019-02-05T01:08:20.116Z,96.30
2019-02-05T01:08:43.192Z,96.40
2019-02-05T01:09:06.054Z,96.40
2019-02-05T01:09:50.931Z,96.40
2019-02-05T01:10:16.329Z,96.40
2019-02-05T01:10:38.788Z,96.70
2019-02-05T01:11:04.789Z,96.50
2019-02-05T01:11:53.068Z,96.50
2019-02-05T01:12:33.229Z,96.50
2019-02-05T01:12:48.700Z,96.70
2019-02-05T01:13:21.729Z,96.40
2019-02-05T01:13:46.649Z,96.30
2019-02-05T01:15:08.949Z,96.70
2019-02-05T01:17:08.295Z,96.70
2019-02-05T01:17:53.432Z,96.60
2019-02-05T01:18:20.609Z,96.50
2019-02-05T01:18:51.611Z,96.30
2019-02-05T01:19:23.428Z,96.30
2019-02-05T01:19:46.870Z,96.30
2019-02-05T01:20:12.929Z,96.30
2019-02-05T01:20:37.608Z,96.30
2019-02-05T01:21:10.851Z,96.30
2019-02-05T01:21:36.969Z,96.40
2019-02-05T01:22:06.031Z,96.50
2019-02-05T01:22:32.629Z,96.80
2019-02-05T01:23:09.268Z,96.50
2019-02-05T01:23:26.608Z,96.60
2019-02-05T01:24:03.948Z,96.90
2019-02-05T01:24:22.989Z,96.80
2019-02-05T01:24:46.169Z,96.70
2019-02-05T01:25:09.115Z,96.70
2019-02-05T01:25:32.112Z,96.70
2019-02-05T01:25:56.611Z,96.60
2019-02-05T01:26:28.931Z,96.70
2019-02-05T01:26:43.928Z,96.40
2019-02-05T01:27:09.789Z,96.60
2019-02-05T01:27:46.330Z,96.60
2019-02-05T01:28:10.369Z,96.70
2019-02-05T01:28:33.361Z,96.80
2019-02-05T01:28:56.149Z,96.60
2019-02-05T01:29:19.150Z,96.40
2019-02-05T01:29:41.949Z,96.30
2019-02-05T01:30:04.929Z,96.70
2019-02-05T01:30:27.809Z,96.40
2019-02-05T01:30:50.867Z,96.70
2019-02-05T01:31:13.908Z,96.40
2019-02-05T01:31:36.789Z,96.30
2019-02-05T01:31:59.810Z,96.40
2019-02-05T01:32:22.588Z,96.40
2019-02-05T01:32:45.609Z,96.30
2019-02-05T01:33:08.568Z,96.20
2019-02-05T01:33:31.470Z,96.30
2019-02-05T01:33:54.508Z,96.50
2019-02-05T01:34:17.449Z,96.50
2019-02-05T01:34:40.369Z,96.50
2019-02-05T01:35:03.126Z,96.70
2019-02-05T01:35:26.152Z,96.50
2019-02-05T01:35:49.838Z,96.40
2019-02-05T01:36:12.989Z,96.40
2019-02-05T01:36:37.971Z,96.40
2019-02-05T01:37:01.642Z,96.60
2019-02-05T01:37:25.609Z,96.70
2019-02-05T01:37:50.489Z,96.70
2019-02-05T01:38:15.689Z,96.70
2019-02-05T01:38:40.292Z,96.80
2019-02-05T01:39:04.589Z,96.60
2019-02-05T01:39:28.369Z,96.60
2019-02-05T01:39:51.173Z,96.70
2019-02-05T01:40:13.988Z,96.70
2019-02-05T01:40:37.929Z,96.70
2019-02-05T01:41:00.989Z,97.00
2019-02-05T01:41:23.892Z,97.20
2019-02-05T01:41:47.649Z,97.20
2019-02-05T01:42:10.570Z,97.30
2019-02-05T01:42:33.369Z,97.10
2019-02-05T01:42:56.809Z,96.90
2019-02-05T01:43:19.728Z,97.00
2019-02-05T01:43:42.808Z,97.10
2019-02-05T01:44:06.508Z,97.20
2019-02-05T01:44:29.589Z,97.10
2019-02-05T01:44:52.611Z,97.10
2019-02-05T01:45:15.729Z,97.20
2019-02-05T01:45:38.571Z,97.10
2019-02-05T01:46:01.429Z,97.30
2019-02-05T01:46:24.649Z,97.10
2019-02-05T01:46:47.609Z,97.10
2019-02-05T01:47:10.449Z,97.30
2019-02-05T01:47:34.509Z,97.30
2019-02-05T01:47:57.489Z,97.10
2019-02-05T01:48:20.490Z,97.00
2019-02-05T01:48:43.429Z,97.10
2019-02-05T01:49:08.908Z,97.00
2019-02-05T01:49:33.589Z,97.20
2019-02-05T01:49:56.569Z,97.10
2019-02-05T01:50:19.500Z,97.10
2019-02-05T01:50:43.489Z,97.00
2019-02-05T01:51:06.368Z,97.00
2019-02-05T01:51:29.829Z,96.90
2019-02-05T01:51:52.570Z,97.10
2019-02-05T01:52:15.711Z,97.20
2019-02-05T01:52:38.949Z,97.10
2019-02-05T01:53:01.782Z,97.10
2019-02-05T01:53:26.229Z,97.10
2019-02-05T01:53:48.969Z,97.20
2019-02-05T01:54:12.431Z,97.10
2019-02-05T01:54:35.409Z,96.90
2019-02-05T01:54:58.309Z,97.00
2019-02-05T01:55:21.409Z,96.90
2019-02-05T01:55:44.369Z,96.90
2019-02-05T01:56:07.268Z,96.90
2019-02-05T01:56:40.152Z,96.70
2019-02-05T01:56:54.733Z,96.60
2019-02-05T01:57:17.548Z,96.50
2019-02-05T01:57:40.592Z,96.40
2019-02-05T01:58:04.218Z,96.30
2019-02-05T01:58:27.391Z,96.40
2019-02-05T01:58:50.257Z,96.20
2019-02-05T01:59:13.253Z,96.30
2019-02-05T01:59:38.188Z,96.30
2019-02-05T02:00:01.609Z,96.30
2019-02-05T02:00:24.707Z,96.40
2019-02-05T02:00:47.573Z,96.50
2019-02-05T02:01:10.528Z,96.70
2019-02-05T02:01:33.888Z,96.70
2019-02-05T02:01:56.869Z,96.90
2019-02-05T02:02:19.657Z,96.80
2019-02-05T02:02:42.549Z,96.90
2019-02-05T02:03:06.511Z,97.00
2019-02-05T02:03:29.369Z,97.00
2019-02-05T02:03:52.449Z,96.90
2019-02-05T02:04:15.370Z,96.90
2019-02-05T02:04:38.270Z,96.80
2019-02-05T02:05:01.257Z,96.70
2019-02-05T02:05:24.350Z,96.70
2019-02-05T02:05:47.249Z,96.60
2019-02-05T02:06:10.209Z,96.70
2019-02-05T02:06:33.729Z,96.70
2019-02-05T02:06:56.954Z,96.60
2019-02-05T02:07:19.808Z,96.70
2019-02-05T02:07:42.689Z,96.70
2019-02-05T02:08:05.709Z,96.80
2019-02-05T02:08:28.809Z,96.80
2019-02-05T02:08:51.628Z,96.80
2019-02-05T02:09:14.549Z,96.80
2019-02-05T02:09:37.489Z,96.80
2019-02-05T02:10:03.629Z,96.80
2019-02-05T02:10:27.329Z,96.80
2019-02-05T02:10:50.279Z,96.80
2019-02-05T02:11:13.189Z,96.80
2019-02-05T02:11:36.709Z,96.70
2019-02-05T02:11:59.488Z,96.80
2019-02-05T02:12:22.768Z,96.90
2019-02-05T02:12:46.627Z,97.20
2019-02-05T02:13:09.537Z,96.90
2019-02-05T02:13:34.248Z,96.60
2019-02-05T02:13:56.949Z,96.60
2019-02-05T02:14:19.809Z,96.60
2019-02-05T02:14:43.068Z,96.40
2019-02-05T02:15:06.710Z,96.30
2019-02-05T02:15:30.189Z,96.30
2019-02-05T02:15:53.469Z,96.40
2019-02-05T02:16:17.049Z,96.40
2019-02-05T02:16:40.009Z,96.40
2019-02-05T02:17:02.771Z,96.40
2019-02-05T02:17:25.867Z,96.40
2019-02-05T02:17:48.869Z,96.50
2019-02-05T02:18:11.689Z,96.50
2019-02-05T02:18:35.353Z,96.50
2019-02-05T02:18:58.428Z,96.70
2019-02-05T02:19:21.409Z,96.80
2019-02-05T02:19:44.406Z,96.90
2019-02-05T02:20:07.252Z,96.90
2019-02-05T02:20:30.249Z,96.80
2019-02-05T02:20:54.091Z,96.80
2019-02-05T02:21:16.928Z,96.90
2019-02-05T02:21:39.708Z,96.70
2019-02-05T02:22:02.750Z,96.70
2019-02-05T02:22:25.709Z,96.80
2019-02-05T02:22:48.729Z,96.80
2019-02-05T02:23:12.489Z,96.70
2019-02-05T02:23:35.409Z,96.70
2019-02-05T02:23:58.329Z,96.80
2019-02-05T02:24:21.129Z,96.80
2019-02-05T02:24:45.149Z,96.70
2019-02-05T02:25:07.969Z,96.60
2019-02-05T02:25:30.890Z,96.70
2019-02-05T02:25:54.010Z,96.70
2019-02-05T02:26:16.829Z,96.70
2019-02-05T02:26:39.969Z,96.80
2019-02-05T02:27:02.890Z,96.80
2019-02-05T02:27:25.888Z,96.90
2019-02-05T02:27:48.869Z,97.20
2019-02-05T02:28:11.968Z,97.10
2019-02-05T02:28:35.449Z,97.00
2019-02-05T02:28:58.308Z,96.90
2019-02-05T02:29:21.088Z,97.30
2019-02-05T02:29:44.128Z,96.90
2019-02-05T02:30:07.030Z,96.80
2019-02-05T02:30:30.005Z,96.80
2019-02-05T02:30:52.911Z,96.80
2019-02-05T02:31:15.649Z,96.80
2019-02-05T02:31:38.516Z,96.80
2019-02-05T02:32:01.471Z,96.90
2019-02-05T02:32:24.729Z,96.80
2019-02-05T02:32:48.452Z,96.80
2019-02-05T02:33:11.469Z,96.50
2019-02-05T02:33:34.389Z,96.70
2019-02-05T02:33:57.749Z,96.70
2019-02-05T02:34:20.657Z,96.70
2019-02-05T02:34:43.569Z,96.90
2019-02-05T02:35:06.435Z,96.70
2019-02-05T02:35:30.029Z,96.70
2019-02-05T02:35:52.868Z,96.50
2019-02-05T02:36:15.890Z,96.50
2019-02-05T02:36:38.709Z,96.40
2019-02-05T02:37:01.597Z,96.50
2019-02-05T02:37:25.328Z,96.60
2019-02-05T02:37:48.909Z,96.60
2019-02-05T02:38:12.010Z,96.70
2019-02-05T02:38:35.009Z,97.00
2019-02-05T02:38:57.972Z,97.10
2019-02-05T02:39:21.009Z,97.00
2019-02-05T02:39:44.389Z,97.10
2019-02-05T02:40:07.208Z,97.20
2019-02-05T02:40:30.270Z,97.30
2019-02-05T02:40:53.150Z,97.80
2019-02-05T02:41:16.629Z,97.70
2019-02-05T02:41:39.456Z,98.00
2019-02-05T02:42:02.231Z,97.90
2019-02-05T02:42:26.208Z,97.70
2019-02-05T02:42:49.449Z,97.40
2019-02-05T02:43:12.488Z,97.30
2019-02-05T02:43:35.437Z,97.30
2019-02-05T02:43:58.413Z,97.30
2019-02-05T02:44:21.431Z,97.20
2019-02-05T02:44:44.289Z,97.40
2019-02-05T02:45:07.650Z,97.20
2019-02-05T02:45:31.289Z,97.10
2019-02-05T02:45:55.828Z,97.20
2019-02-05T02:46:19.569Z,97.40
2019-02-05T02:46:42.988Z,97.40
2019-02-05T02:47:05.939Z,97.20
2019-02-05T02:47:28.830Z,97.00
2019-02-05T02:47:51.649Z,96.90
2019-02-05T02:48:14.569Z,96.90
2019-02-05T02:48:37.409Z,96.90
2019-02-05T02:49:00.330Z,97.00
2019-02-05T02:49:23.209Z,97.00
2019-02-05T02:49:46.248Z,97.00
2019-02-05T02:50:09.089Z,97.10
2019-02-05T02:50:31.849Z,97.20
2019-02-05T02:50:54.729Z,97.20
2019-02-05T02:51:17.569Z,97.30
2019-02-05T02:51:40.310Z,97.40
2019-02-05T02:52:03.090Z,97.20
2019-02-05T02:52:25.929Z,97.30
2019-02-05T02:52:48.770Z,97.40
2019-02-05T02:53:11.608Z,97.40
2019-02-05T02:53:34.469Z,97.40
2019-02-05T02:53:57.229Z,97.50
2019-02-05T02:54:20.290Z,97.50
2019-02-05T02:54:43.212Z,97.50
2019-02-05T02:55:06.049Z,98.00
2019-02-05T02:55:29.071Z,97.90
2019-02-05T02:55:51.990Z,97.80
2019-02-05T02:56:14.907Z,97.60
2019-02-05T02:56:37.808Z,97.80
2019-02-05T02:57:04.887Z,97.80
2019-02-05T02:57:25.389Z,98.00
2019-02-05T02:57:48.249Z,98.00
2019-02-05T02:58:13.596Z,98.10
2019-02-05T02:58:35.892Z,98.10
2019-02-05T02:58:59.009Z,98.10
2019-02-05T02:59:21.929Z,98.10
2019-02-05T02:59:44.751Z,98.10
2019-02-05T03:00:07.771Z,97.90
2019-02-05T03:00:30.688Z,97.80
2019-02-05T03:00:53.549Z,97.90
2019-02-05T03:01:17.509Z,97.80
2019-02-05T03:01:40.413Z,97.70
2019-02-05T03:02:03.271Z,97.80
2019-02-05T03:02:26.111Z,97.50
2019-02-05T03:02:49.075Z,97.30
2019-02-05T03:03:12.453Z,97.20
2019-02-05T03:03:39.830Z,97.20
2019-02-05T03:04:04.410Z,97.20
2019-02-05T03:04:29.008Z,97.40
2019-02-05T03:04:52.849Z,97.20
2019-02-05T03:05:15.881Z,97.00
2019-02-05T03:05:39.590Z,96.90
2019-02-05T03:06:02.829Z,96.70
2019-02-05T03:06:25.730Z,96.90
2019-02-05T03:06:49.228Z,96.80
2019-02-05T03:07:12.051Z,96.80
2019-02-05T03:07:34.931Z,96.70
2019-02-05T03:07:58.529Z,96.70
2019-02-05T03:08:21.409Z,96.90
2019-02-05T03:08:44.289Z,97.00
2019-02-05T03:09:09.588Z,97.00
2019-02-05T03:09:32.389Z,97.00
2019-02-05T03:09:55.333Z,96.90
2019-02-05T03:10:18.711Z,97.50
2019-02-05T03:10:41.530Z,97.20
2019-02-05T03:11:04.390Z,97.30
2019-02-05T03:11:28.090Z,97.20
2019-02-05T03:11:51.290Z,97.00
2019-02-05T03:12:14.079Z,97.20
2019-02-05T03:12:37.489Z,96.90
2019-02-05T03:13:00.255Z,97.10
2019-02-05T03:13:23.169Z,97.20
2019-02-05T03:13:46.530Z,97.30
2019-02-05T03:14:09.366Z,97.30
2019-02-05T03:14:32.144Z,97.20
2019-02-05T03:14:55.379Z,97.30
2019-02-05T03:15:18.156Z,97.20
2019-02-05T03:15:40.971Z,97.30
2019-02-05T03:16:03.770Z,97.40
2019-02-05T03:16:26.610Z,97.50
2019-02-05T03:16:49.592Z,97.60
2019-02-05T03:17:12.409Z,97.50
2019-02-05T03:17:35.249Z,97.50
2019-02-05T03:17:58.127Z,97.90
2019-02-05T03:18:20.989Z,97.90
2019-02-05T03:18:43.971Z,97.70
2019-02-05T03:19:06.948Z,97.50
2019-02-05T03:19:29.929Z,97.70
2019-02-05T03:19:56.191Z,97.60
2019-02-05T03:20:19.069Z,97.30
2019-02-05T03:20:41.898Z,97.30
2019-02-05T03:21:06.389Z,97.30
2019-02-05T03:21:30.469Z,97.30
2019-02-05T03:21:53.430Z,97.30
2019-02-05T03:22:16.216Z,97.30
2019-02-05T03:22:40.332Z,97.20
2019-02-05T03:23:03.150Z,97.20
2019-02-05T03:23:26.136Z,97.10
2019-02-05T03:23:49.075Z,97.00
2019-02-05T03:24:12.609Z,97.10
2019-02-05T03:24:35.450Z,97.30
2019-02-05T03:25:06.330Z,97.30
2019-02-05T03:25:30.432Z,97.50
2019-02-05T03:25:58.893Z,97.20
2019-02-05T03:26:27.330Z,97.00
2019-02-05T03:26:55.311Z,97.00
2019-02-05T03:27:19.369Z,97.10
2019-02-05T03:27:54.790Z,97.00
2019-02-05T03:28:08.729Z,97.10
2019-02-05T03:28:34.369Z,97.30
2019-02-05T03:29:00.929Z,97.30
2019-02-05T03:29:26.783Z,97.40
2019-02-05T03:29:50.694Z,97.50
2019-02-05T03:30:17.620Z,97.50
2019-02-05T03:30:43.751Z,97.60
2019-02-05T03:31:12.650Z,97.60
2019-02-05T03:31:45.442Z,97.20
2019-02-05T03:32:22.789Z,97.50
2019-02-05T03:32:38.031Z,97.10
2019-02-05T03:33:05.664Z,97.40
2019-02-05T03:34:16.430Z,96.80
2019-02-05T03:34:44.688Z,96.80
2019-02-05T03:35:17.199Z,96.90
2019-02-05T03:36:12.249Z,97.10
2019-02-05T03:36:19.030Z,97.10
2019-02-05T03:36:43.450Z,97.20
2019-02-05T03:37:25.369Z,97.40
2019-02-05T03:37:55.149Z,97.50
2019-02-05T03:38:20.984Z,97.60
2019-02-05T03:38:44.430Z,97.70
2019-02-05T03:39:53.271Z,97.80
2019-02-05T03:40:19.530Z,98.00
2019-02-05T03:40:44.029Z,98.00
2019-02-05T03:41:13.629Z,97.80
2019-02-05T03:41:39.594Z,97.60
2019-02-05T03:42:12.891Z,97.90
2019-02-05T03:43:23.188Z,97.60
2019-02-05T03:43:50.209Z,97.90
2019-02-05T03:44:17.909Z,98.00
2019-02-05T03:44:42.509Z,98.00
2019-02-05T03:45:06.108Z,97.90
2019-02-05T03:45:29.027Z,97.90
2019-02-05T03:45:51.868Z,97.90
2019-02-05T03:46:15.328Z,97.70
2019-02-05T03:46:38.409Z,97.70
2019-02-05T03:47:01.750Z,97.80
2019-02-05T03:47:25.290Z,97.60
2019-02-05T03:47:48.148Z,97.80
2019-02-05T03:48:11.088Z,98.00
2019-02-05T03:48:35.209Z,98.10
2019-02-05T03:48:58.130Z,97.90
2019-02-05T03:49:20.991Z,97.90
2019-02-05T03:49:44.389Z,97.60
2019-02-05T03:50:07.169Z,97.50
2019-02-05T03:50:31.500Z,97.80
2019-02-05T03:50:55.191Z,97.70
2019-02-05T03:51:19.771Z,97.70
2019-02-05T03:51:42.590Z,97.80
2019-02-05T03:52:06.467Z,97.80
2019-02-05T03:52:30.909Z,97.60
2019-02-05T03:52:54.349Z,97.60
2019-02-05T03:53:17.868Z,97.60
2019-02-05T03:53:42.289Z,97.50
2019-02-05T03:54:05.119Z,97.80
2019-02-05T03:54:28.789Z,97.90
2019-02-05T03:54:51.809Z,97.90
2019-02-05T03:55:15.129Z,97.70
2019-02-05T03:55:38.051Z,97.50
2019-02-05T03:56:01.036Z,97.40
2019-02-05T03:56:25.472Z,97.30
2019-02-05T03:56:48.369Z,97.20
2019-02-05T03:57:11.189Z,97.40
2019-02-05T03:57:33.989Z,97.40
2019-02-05T03:57:56.969Z,97.50
2019-02-05T03:58:20.031Z,97.40
2019-02-05T03:58:43.370Z,97.50
2019-02-05T03:59:10.609Z,97.40
2019-02-05T03:59:33.469Z,97.40
2019-02-05T03:59:56.490Z,97.50
2019-02-05T04:00:19.568Z,97.40
2019-02-05T04:00:42.910Z,97.60
2019-02-05T04:01:15.009Z,97.50
2019-02-05T04:01:39.589Z,97.50
2019-02-05T04:02:03.770Z,97.50
2019-02-05T04:02:27.030Z,97.60
2019-02-05T04:02:51.769Z,97.60
2019-02-05T04:03:14.750Z,97.70
2019-02-05T04:03:40.048Z,97.70
2019-02-05T04:04:02.769Z,97.80
2019-02-05T04:04:27.164Z,97.90
2019-02-05T04:04:51.188Z,98.00
2019-02-05T04:05:15.849Z,98.10
2019-02-05T04:05:38.833Z,98.10
2019-02-05T04:06:02.646Z,98.30
2019-02-05T04:06:25.607Z,98.20
2019-02-05T04:06:48.469Z,98.30
2019-02-05T04:07:11.369Z,98.40
2019-02-05T04:07:34.188Z,98.50
2019-02-05T04:07:57.029Z,98.40
2019-02-05T04:08:19.889Z,98.40
2019-02-05T04:08:42.769Z,98.50
2019-02-05T04:09:08.569Z,98.50
2019-02-05T04:09:32.432Z,98.40
2019-02-05T04:09:55.453Z,98.50
2019-02-05T04:10:18.370Z,98.70
2019-02-05T04:10:41.269Z,98.60
2019-02-05T04:11:04.128Z,98.60
2019-02-05T04:11:26.968Z,98.60
2019-02-05T04:11:49.888Z,98.50
2019-02-05T04:12:13.234Z,98.60
2019-02-05T04:12:36.808Z,98.60
2019-02-05T04:13:01.952Z,98.50
2019-02-05T04:13:25.469Z,98.60
2019-02-05T04:13:48.330Z,98.50
2019-02-05T04:14:22.050Z,98.50
2019-02-05T04:14:46.853Z,98.50
2019-02-05T04:15:11.251Z,98.60
2019-02-05T04:16:21.868Z,98.60
2019-02-05T04:16:51.628Z,98.40
2019-02-05T04:17:14.508Z,98.20
2019-02-05T04:17:40.088Z,98.10
2019-02-05T04:18:02.830Z,98.30
2019-02-05T04:18:27.009Z,98.20
2019-02-05T04:18:51.649Z,98.10
2019-02-05T04:19:19.189Z,98.20
2019-02-05T04:20:08.003Z,98.40
2019-02-05T04:20:26.509Z,98.40
2019-02-05T04:21:37.229Z,98.50
2019-02-05T04:22:02.262Z,98.60
2019-02-05T04:22:29.009Z,98.40
2019-02-05T04:23:08.009Z,98.40
2019-02-05T04:23:35.268Z,98.40
2019-02-05T04:23:57.072Z,98.50
2019-02-05T04:24:38.069Z,98.50
2019-02-05T04:25:08.049Z,98.60
2019-02-05T04:25:39.111Z,98.50
2019-02-05T04:26:09.189Z,98.70
2019-02-05T04:26:37.818Z,98.90
2019-02-05T04:27:12.068Z,98.70
2019-02-05T04:27:45.060Z,98.70
2019-02-05T04:28:03.495Z,98.50
2019-02-05T04:28:26.442Z,98.50
2019-02-05T04:28:54.338Z,98.60
2019-02-05T04:29:28.288Z,98.50
2019-02-05T04:29:54.374Z,98.60
2019-02-05T04:30:18.470Z,98.70
2019-02-05T04:30:41.428Z,98.10
2019-02-05T04:31:08.688Z,98.10
2019-02-05T04:31:35.968Z,98.10
2019-02-05T04:32:00.369Z,97.50
2019-02-05T04:32:25.149Z,96.70
2019-02-05T04:32:50.950Z,96.70
2019-02-05T04:33:20.451Z,96.90
2019-02-05T04:33:51.449Z,96.90
2019-02-05T04:34:57.950Z,96.30
2019-02-05T04:35:27.808Z,96.00
2019-02-05T04:35:54.049Z,95.90
2019-02-05T04:36:18.030Z,95.90
2019-02-05T04:36:40.852Z,95.70
2019-02-05T04:37:03.611Z,95.70
2019-02-05T04:37:26.427Z,95.80
2019-02-05T04:37:52.811Z,96.00
2019-02-05T04:38:15.689Z,95.90
2019-02-05T04:38:40.310Z,95.90
2019-02-05T04:39:05.188Z,95.70
2019-02-05T04:39:29.654Z,95.60
2019-02-05T04:40:11.071Z,96.00
2019-02-05T04:40:34.050Z,96.00
2019-02-05T04:40:56.864Z,95.90
2019-02-05T04:41:19.788Z,95.80
2019-02-05T04:41:42.650Z,96.20
2019-02-05T04:42:05.728Z,96.00
2019-02-05T04:42:28.608Z,95.80
2019-02-05T04:42:52.690Z,95.70
2019-02-05T04:43:17.056Z,95.70
2019-02-05T04:43:40.288Z,95.80
2019-02-05T04:44:03.169Z,95.90
2019-02-05T04:44:31.328Z,95.90
2019-02-05T04:45:34.103Z,96.10
2019-02-05T04:45:59.771Z,96.30
2019-02-05T04:46:27.257Z,96.60
2019-02-05T04:46:51.329Z,97.00
2019-02-05T04:47:15.789Z,97.00
2019-02-05T04:47:41.109Z,97.10
2019-02-05T04:48:10.568Z,97.20
2019-02-05T04:48:43.806Z,97.50
2019-02-05T04:49:19.429Z,97.60
2019-02-05T04:49:45.211Z,97.20
2019-02-05T04:50:09.048Z,97.20
2019-02-05T04:50:33.469Z,97.50
2019-02-05T04:50:56.449Z,97.60
2019-02-05T04:52:07.030Z,97.10
2019-02-05T04:52:29.766Z,97.50
2019-02-05T04:52:52.635Z,97.70
2019-02-05T04:53:21.111Z,97.70
2019-02-05T04:53:51.051Z,97.70
2019-02-05T04:54:17.436Z,97.40
2019-02-05T04:54:46.170Z,97.80
2019-02-05T04:55:12.189Z,97.70
2019-02-05T04:55:57.286Z,97.80
2019-02-05T04:56:32.749Z,97.60
2019-02-05T04:57:00.046Z,97.40
2019-02-05T04:57:56.667Z,97.60
2019-02-05T04:58:08.650Z,97.10
2019-02-05T04:58:50.327Z,97.10
2019-02-05T04:59:30.310Z,97.00
2019-02-05T04:59:52.849Z,96.70
2019-02-05T05:00:24.607Z,96.70
2019-02-05T05:00:58.708Z,96.50
2019-02-05T05:01:30.134Z,96.50
2019-02-05T05:02:49.889Z,96.70
2019-02-05T05:03:28.708Z,96.90
2019-02-05T05:05:27.028Z,96.40
2019-02-05T05:05:40.168Z,96.60
2019-02-05T05:06:57.718Z,96.90
2019-02-05T05:07:45.696Z,97.20
2019-02-05T05:08:11.430Z,96.80
2019-02-05T05:08:43.368Z,96.70
2019-02-05T05:09:17.368Z,96.60
2019-02-05T05:09:34.649Z,96.70
2019-02-05T05:10:01.724Z,96.60
2019-02-05T05:10:34.146Z,96.60
2019-02-05T05:11:04.168Z,96.30
2019-02-05T05:12:00.027Z,96.30
2019-02-05T05:12:16.168Z,96.30
2019-02-05T05:13:02.358Z,96.40
2019-02-05T05:13:36.548Z,96.50
2019-02-05T05:13:56.115Z,96.40
2019-02-05T05:14:34.987Z,96.40
2019-02-05T05:14:59.950Z,96.40
2019-02-05T05:15:28.328Z,96.50
2019-02-05T05:16:10.854Z,96.70
2019-02-05T05:16:54.255Z,96.60
2019-02-05T05:17:41.037Z,96.70
2019-02-05T05:18:07.769Z,97.20
2019-02-05T05:18:48.249Z,97.20
2019-02-05T05:19:15.888Z,97.20
2019-02-05T05:19:51.371Z,97.20
2019-02-05T05:21:04.548Z,97.00
2019-02-05T05:21:47.649Z,96.80
2019-02-05T05:22:16.808Z,96.70
2019-02-05T05:23:02.553Z,96.40
2019-02-05T05:23:22.371Z,96.40
2019-02-05T05:23:47.187Z,96.30
2019-02-05T05:24:14.530Z,96.30
2019-02-05T05:25:22.250Z,96.30
2019-02-05T05:25:55.109Z,96.40
2019-02-05T05:26:35.648Z,96.40
2019-02-05T05:27:03.314Z,96.40
2019-02-05T05:27:35.490Z,96.40
2019-02-05T05:28:09.676Z,96.40
2019-02-05T05:28:37.309Z,96.40
2019-02-05T05:29:10.388Z,96.80
2019-02-05T05:29:35.507Z,96.40
2019-02-05T05:30:01.116Z,96.30
2019-02-05T05:30:27.726Z,96.40
2019-02-05T05:30:54.469Z,96.30
2019-02-05T05:31:17.488Z,96.20